createdAt,value
2022-11-22T00:00:31.423Z,92.90
2022-11-22T00:02:58.056Z,92.90
2022-11-22T00:05:24.486Z,93.00
2022-11-22T00:07:50.891Z,93.00
2022-11-22T00:10:17.189Z,93.10
2022-11-22T00:12:43.424Z,92.90
2022-11-22T00:15:10.587Z,92.90
2022-11-22T00:17:37.306Z,93.00
2022-11-22T00:20:04.857Z,92.90
2022-11-22T00:22:31.786Z,93.00
2022-11-22T00:24:57.986Z,93.00
2022-11-22T00:27:24.559Z,93.00
2022-11-22T00:29:50.951Z,93.10
2022-11-22T00:32:17.482Z,93.10
2022-11-22T00:34:43.609Z,93.10
2022-11-22T00:37:09.800Z,93.20
2022-11-22T00:39:36.630Z,93.20
2022-11-22T00:42:03.004Z,93.20
2022-11-22T00:44:29.144Z,93.10
2022-11-22T00:46:55.292Z,93.20
2022-11-22T00:49:23.613Z,93.20
2022-11-22T00:51:50.187Z,93.20
2022-11-22T00:54:17.395Z,93.30
2022-11-22T00:56:43.581Z,93.30
2022-11-22T00:59:09.792Z,93.40
2022-11-22T01:01:36.030Z,93.40
2022-11-22T01:04:02.311Z,93.40
2022-11-22T01:06:28.482Z,93.50
2022-11-22T01:08:54.648Z,93.50
2022-11-22T01:11:20.878Z,93.60
2022-11-22T01:13:47.057Z,93.50
2022-11-22T01:16:13.409Z,93.50
2022-11-22T01:18:39.778Z,93.50
2022-11-22T01:21:06.014Z,93.50
2022-11-22T01:23:33.053Z,93.60
2022-11-22T01:25:59.766Z,93.60
2022-11-22T01:28:26.453Z,93.70
2022-11-22T01:30:52.764Z,93.70
2022-11-22T01:33:20.315Z,93.70
2022-11-22T01:35:46.557Z,93.70
2022-11-22T01:38:12.787Z,93.80
2022-11-22T01:40:38.921Z,93.90
2022-11-22T01:43:11.608Z,94.00
2022-11-22T01:45:41.054Z,94.00
2022-11-22T01:48:53.667Z,94.00
2022-11-22T01:51:29.034Z,94.00
2022-11-22T01:53:58.364Z,94.20
2022-11-22T01:56:24.563Z,94.50
2022-11-22T01:58:56.150Z,94.60
2022-11-22T02:01:22.392Z,94.60
2022-11-22T02:03:49.224Z,94.60
2022-11-22T02:06:15.374Z,94.60
2022-11-22T02:09:15.560Z,94.50
2022-11-22T02:11:47.847Z,94.80
2022-11-22T02:14:15.183Z,94.90
2022-11-22T02:16:41.859Z,95.20
2022-11-22T02:19:15.381Z,95.40
2022-11-22T02:21:42.017Z,95.50
2022-11-22T02:24:17.609Z,95.80
2022-11-22T02:26:44.176Z,95.90
2022-11-22T02:29:11.440Z,96.00
2022-11-22T02:31:43.256Z,96.00
2022-11-22T02:34:10.398Z,96.00
2022-11-22T02:36:39.597Z,96.00
2022-11-22T02:39:05.790Z,96.10
2022-11-22T02:41:31.947Z,95.70
2022-11-22T02:43:58.134Z,96.50
2022-11-22T02:46:24.390Z,97.00
2022-11-22T02:48:50.580Z,96.20
2022-11-22T02:51:19.054Z,96.90
2022-11-22T02:53:46.794Z,97.10
2022-11-22T02:56:13.280Z,97.20
2022-11-22T02:58:39.434Z,97.40
2022-11-22T03:01:06.088Z,97.40
2022-11-22T03:03:32.470Z,97.50
2022-11-22T03:05:58.640Z,97.50
2022-11-22T03:08:24.872Z,97.60
2022-11-22T03:10:51.030Z,97.60
2022-11-22T03:13:18.533Z,97.70
2022-11-22T03:15:47.482Z,97.20
2022-11-22T03:18:13.647Z,97.70
2022-11-22T03:20:39.797Z,97.90
2022-11-22T03:23:05.950Z,97.80
2022-11-22T03:25:32.711Z,97.70
2022-11-22T03:27:58.919Z,97.70
2022-11-22T03:30:25.577Z,97.70
2022-11-22T03:32:51.730Z,97.70
2022-11-22T03:35:18.056Z,97.60
2022-11-22T03:37:44.239Z,97.20
2022-11-22T03:40:10.578Z,97.60
2022-11-22T03:42:36.752Z,97.50
2022-11-22T03:45:04.157Z,97.50
2022-11-22T03:47:30.394Z,97.40
2022-11-22T03:49:56.542Z,97.20
2022-11-22T03:52:22.742Z,97.10
2022-11-22T03:54:49.714Z,97.10
2022-11-22T03:57:16.740Z,97.10
2022-11-22T03:59:42.898Z,97.20
2022-11-22T04:02:10.239Z,97.20
2022-11-22T04:04:36.984Z,97.20
2022-11-22T04:07:03.261Z,97.10
2022-11-22T04:09:30.220Z,97.10
2022-11-22T04:11:56.613Z,97.20
2022-11-22T04:14:41.754Z,97.30
2022-11-22T04:17:09.602Z,97.20
2022-11-22T04:19:35.756Z,97.30
2022-11-22T04:22:01.905Z,97.30
2022-11-22T04:24:46.677Z,97.50
2022-11-22T04:27:12.840Z,97.40
2022-11-22T04:29:39.686Z,97.50
2022-11-22T04:32:29.620Z,97.50
2022-11-22T04:34:55.831Z,98.70
2022-11-22T04:37:21.998Z,97.70
2022-11-22T04:39:48.633Z,97.70
2022-11-22T04:42:34.040Z,97.70
2022-11-22T04:45:00.218Z,97.60
2022-11-22T04:47:50.115Z,97.70
2022-11-22T04:50:35.854Z,97.60
2022-11-22T04:53:02.460Z,97.60
2022-11-22T04:55:28.600Z,97.70
2022-11-22T04:57:59.741Z,97.70
2022-11-22T05:00:28.389Z,97.80
2022-11-22T05:02:54.721Z,97.70
2022-11-22T05:05:21.679Z,97.80
2022-11-22T05:07:48.903Z,97.80
2022-11-22T05:10:16.714Z,97.70
2022-11-22T05:12:45.596Z,97.80
2022-11-22T05:15:11.767Z,97.80
2022-11-22T05:17:38.223Z,98.40
2022-11-22T05:20:09.388Z,97.80
2022-11-22T05:22:55.087Z,98.00
2022-11-22T05:25:25.242Z,97.80
2022-11-22T05:27:55.263Z,97.80
2022-11-22T05:30:21.939Z,97.80
2022-11-22T05:32:48.115Z,97.80
2022-11-22T05:35:14.418Z,97.90
2022-11-22T05:37:41.560Z,97.90
2022-11-22T05:40:09.589Z,97.90
2022-11-22T05:42:36.269Z,97.90
2022-11-22T05:45:03.209Z,98.00
2022-11-22T05:47:34.978Z,98.10
2022-11-22T05:50:02.962Z,98.10
2022-11-22T05:52:29.132Z,98.20
2022-11-22T05:54:55.264Z,98.20
2022-11-22T05:57:22.103Z,98.20
2022-11-22T05:59:48.270Z,98.40
2022-11-22T06:02:14.525Z,98.30
2022-11-22T06:04:40.713Z,98.30
2022-11-22T06:07:10.048Z,98.40
2022-11-22T06:09:36.655Z,98.30
2022-11-22T06:12:03.054Z,98.30
2022-11-22T06:14:29.482Z,98.40
2022-11-22T06:16:55.645Z,98.80
2022-11-22T06:19:21.769Z,98.40
2022-11-22T06:21:47.959Z,98.40
2022-11-22T06:24:14.150Z,98.40
2022-11-22T06:26:40.855Z,98.40
2022-11-22T06:29:07.037Z,98.40
2022-11-22T06:31:34.371Z,98.50
2022-11-22T06:34:00.532Z,98.50
2022-11-22T06:36:30.986Z,98.50
2022-11-22T06:38:57.280Z,98.50
2022-11-22T06:41:25.281Z,98.50
2022-11-22T06:43:52.464Z,98.50
2022-11-22T06:46:20.160Z,98.60
2022-11-22T06:48:46.790Z,98.50
2022-11-22T06:51:23.674Z,98.50
2022-11-22T06:53:50.252Z,98.50
2022-11-22T06:56:27.405Z,98.70
2022-11-22T06:58:53.785Z,98.50
2022-11-22T07:01:21.750Z,98.50
2022-11-22T07:03:48.168Z,98.60
2022-11-22T07:06:15.282Z,98.60
2022-11-22T07:08:41.523Z,98.50
2022-11-22T07:11:12.578Z,98.50
2022-11-22T07:13:38.788Z,98.50
2022-11-22T07:16:06.366Z,98.50
2022-11-22T07:18:32.674Z,98.40
2022-11-22T07:21:06.891Z,98.40
2022-11-22T07:23:36.328Z,98.40
2022-11-22T07:26:02.584Z,98.30
2022-11-22T07:28:28.874Z,98.30
2022-11-22T07:31:06.309Z,98.20
2022-11-22T07:33:32.534Z,98.10
2022-11-22T07:36:32.171Z,98.10
2022-11-22T07:38:58.386Z,98.10
2022-11-22T07:41:24.651Z,98.20
2022-11-22T07:43:52.951Z,98.20
2022-11-22T07:46:29.095Z,98.10
2022-11-22T07:48:56.797Z,98.00
2022-11-22T07:51:23.182Z,98.00
2022-11-22T07:53:49.434Z,98.00
2022-11-22T07:56:15.663Z,98.00
2022-11-22T07:58:42.084Z,97.80
2022-11-22T08:01:10.186Z,97.70
2022-11-22T08:03:37.594Z,97.70
2022-11-22T08:06:05.317Z,97.60
2022-11-22T08:08:31.940Z,97.70
2022-11-22T08:10:58.451Z,97.70
2022-11-22T08:13:24.879Z,97.40
2022-11-22T08:15:54.458Z,97.60
2022-11-22T08:18:21.321Z,97.30
2022-11-22T08:20:47.808Z,97.30
2022-11-22T08:23:15.113Z,97.20
2022-11-22T08:25:41.297Z,97.10
2022-11-22T08:28:08.703Z,96.70
2022-11-22T08:30:34.890Z,96.60
2022-11-22T08:33:02.248Z,96.40
2022-11-22T08:35:28.530Z,96.20
2022-11-22T08:37:57.894Z,96.00
2022-11-22T08:40:24.464Z,96.10
2022-11-22T08:42:54.540Z,96.00
2022-11-22T08:45:20.779Z,95.90
2022-11-22T08:47:48.547Z,95.50
2022-11-22T08:50:16.506Z,95.30
2022-11-22T08:52:43.045Z,95.50
2022-11-22T08:55:09.560Z,95.10
2022-11-22T08:57:35.773Z,95.10
2022-11-22T09:00:03.463Z,95.50
2022-11-22T09:02:29.688Z,95.00
2022-11-22T09:04:56.938Z,94.80
2022-11-22T09:10:19.530Z,95.40
2022-11-22T09:12:45.798Z,94.30
2022-11-22T09:15:13.485Z,94.40
2022-11-22T09:17:40.367Z,94.40
2022-11-22T09:20:08.314Z,94.10
2022-11-22T09:22:34.618Z,94.30
2022-11-22T09:25:01.079Z,94.20
2022-11-22T09:27:27.369Z,93.70
2022-11-22T09:29:53.567Z,93.90
2022-11-22T09:32:20.404Z,93.90
2022-11-22T09:34:47.306Z,93.70
2022-11-22T09:37:17.689Z,93.60
2022-11-22T09:39:48.309Z,93.70
2022-11-22T09:47:33.978Z,93.40
2022-11-22T09:53:36.822Z,93.70
2022-11-22T09:56:05.086Z,93.00
2022-11-22T09:58:58.037Z,92.60
2022-11-22T10:01:27.843Z,92.10
2022-11-22T10:05:17.481Z,92.20
2022-11-22T10:07:49.581Z,91.50
2022-11-22T10:10:22.016Z,92.10
2022-11-22T10:12:56.081Z,91.90
2022-11-22T10:16:57.472Z,91.70
2022-11-22T10:19:34.709Z,91.70
2022-11-22T10:22:00.925Z,91.70
2022-11-22T10:24:27.645Z,91.50
2022-11-22T10:26:53.884Z,91.70
2022-11-22T10:29:51.439Z,91.50
2022-11-22T10:32:34.295Z,91.40
2022-11-22T10:35:49.656Z,91.40
2022-11-22T10:40:08.120Z,91.20
2022-11-22T10:43:04.672Z,91.20
2022-11-22T10:47:03.551Z,91.10
2022-11-22T10:50:00.887Z,90.80
2022-11-22T10:53:04.595Z,90.60
2022-11-22T11:00:37.986Z,90.40
2022-11-22T11:04:04.654Z,90.50
2022-11-22T11:07:10.621Z,90.90
2022-11-22T11:12:48.814Z,90.20
2022-11-22T11:15:24.878Z,90.20
2022-11-22T11:18:00.530Z,90.40
2022-11-22T11:20:35.042Z,90.10
2022-11-22T11:23:17.652Z,90.10
2022-11-22T11:25:45.248Z,90.00
2022-11-22T11:28:27.787Z,90.10
2022-11-22T11:31:01.854Z,89.30
2022-11-22T11:33:34.448Z,89.70
2022-11-22T11:36:18.478Z,89.30
2022-11-22T11:38:55.944Z,89.30
2022-11-22T11:41:29.969Z,88.70
2022-11-22T11:44:01.046Z,89.50
2022-11-22T11:46:28.539Z,88.60
2022-11-22T11:48:57.884Z,91.50
2022-11-22T11:51:47.831Z,87.40
2022-11-22T11:54:27.023Z,87.40
2022-11-22T11:57:07.229Z,88.20
2022-11-22T11:59:52.389Z,88.20
2022-11-22T12:02:36.636Z,87.90
2022-11-22T12:05:28.168Z,87.30
2022-11-22T12:07:55.072Z,87.40
2022-11-22T12:14:12.395Z,87.10
2022-11-22T12:16:50.690Z,87.30
2022-11-22T12:19:52.707Z,85.90
2022-11-22T12:22:49.454Z,85.50
2022-11-22T12:25:45.740Z,85.70
2022-11-22T12:28:19.906Z,85.80
2022-11-22T12:33:33.167Z,86.30
2022-11-22T12:35:59.395Z,87.20
2022-11-22T12:38:38.707Z,87.00
2022-11-22T12:41:08.393Z,87.90
2022-11-22T12:43:57.706Z,87.60
2022-11-22T12:46:28.325Z,87.00
2022-11-22T12:49:00.912Z,87.30
2022-11-22T12:52:02.992Z,87.80
2022-11-22T12:54:37.534Z,88.00
2022-11-22T12:59:33.219Z,88.10
2022-11-22T13:04:10.432Z,88.20
2022-11-22T13:06:56.864Z,88.70
2022-11-22T13:09:33.770Z,88.70
2022-11-22T13:12:04.968Z,89.70
2022-11-22T13:14:46.970Z,89.70
2022-11-22T13:17:15.369Z,89.30
2022-11-22T13:19:50.760Z,89.80
2022-11-22T13:29:55.892Z,89.80
2022-11-22T13:32:23.413Z,90.10
2022-11-22T13:36:42.855Z,90.00
2022-11-22T13:39:15.895Z,90.00
2022-11-22T13:42:02.049Z,90.20
2022-11-22T13:44:39.168Z,90.20
2022-11-22T13:47:35.442Z,90.30
2022-11-22T13:50:01.864Z,90.40
2022-11-22T13:52:30.208Z,90.40
2022-11-22T13:55:02.611Z,90.50
2022-11-22T13:57:41.332Z,90.50
2022-11-22T14:00:40.986Z,90.70
2022-11-22T14:03:30.650Z,90.80
2022-11-22T14:05:57.587Z,90.80
2022-11-22T14:08:43.597Z,90.90
2022-11-22T14:11:39.296Z,91.10
2022-11-22T14:15:37.827Z,91.10
2022-11-22T14:18:20.843Z,91.30
2022-11-22T14:21:04.152Z,91.80
2022-11-22T14:24:57.068Z,91.40
2022-11-22T14:29:15.549Z,91.50
2022-11-22T14:31:41.784Z,91.50
2022-11-22T14:34:25.133Z,91.50
2022-11-22T14:38:43.770Z,91.50
2022-11-22T14:41:42.593Z,91.40
2022-11-22T14:44:35.219Z,91.50
2022-11-22T14:47:04.528Z,91.50
2022-11-22T14:49:48.259Z,91.60
2022-11-22T14:52:25.217Z,91.70
2022-11-22T14:54:56.701Z,91.70
2022-11-22T14:57:24.397Z,91.60
2022-11-22T15:03:40.394Z,91.70
2022-11-22T15:09:22.948Z,91.70
2022-11-22T15:59:41.420Z,91.80
2022-11-22T16:02:21.791Z,93.10
2022-11-22T16:06:08.612Z,92.70
2022-11-22T16:08:38.560Z,92.80
2022-11-22T16:11:06.692Z,92.80
2022-11-22T16:13:34.955Z,92.70
2022-11-22T16:16:36.056Z,92.80
2022-11-22T16:19:21.324Z,92.70
2022-11-22T16:22:05.334Z,92.60
2022-11-22T16:24:32.375Z,92.60
2022-11-22T16:27:04.950Z,92.70
2022-11-22T16:29:33.011Z,92.90
2022-11-22T16:32:20.873Z,92.80
2022-11-22T16:34:51.654Z,92.80
2022-11-22T16:37:33.099Z,92.90
2022-11-22T16:40:05.724Z,93.10
2022-11-22T16:42:33.486Z,93.10
2022-11-22T16:45:03.951Z,93.00
2022-11-22T16:47:32.447Z,93.10
2022-11-22T16:49:59.410Z,93.70
2022-11-22T16:52:27.577Z,93.30
2022-11-22T16:54:55.011Z,93.30
2022-11-22T16:57:21.316Z,93.30
2022-11-22T16:59:47.790Z,93.40
2022-11-22T17:02:16.161Z,93.20
2022-11-22T17:04:45.500Z,93.50
2022-11-22T17:07:12.878Z,94.10
2022-11-22T17:09:39.926Z,93.50
2022-11-22T17:12:39.486Z,93.50
2022-11-22T17:15:09.491Z,93.50
2022-11-22T17:17:35.728Z,93.40
2022-11-22T17:20:02.960Z,93.40
2022-11-22T17:22:30.399Z,93.30
2022-11-22T17:24:57.179Z,93.60
2022-11-22T17:27:23.599Z,93.60
2022-11-22T17:29:51.170Z,93.60
2022-11-22T17:32:18.250Z,93.70
2022-11-22T17:34:45.390Z,93.70
2022-11-22T17:37:12.247Z,93.80
2022-11-22T17:39:38.781Z,93.80
2022-11-22T17:42:05.328Z,93.60
2022-11-22T17:44:31.668Z,93.50
2022-11-22T17:46:58.389Z,93.50
2022-11-22T17:49:25.249Z,93.70
2022-11-22T17:51:52.691Z,93.70
2022-11-22T17:54:19.119Z,93.60
2022-11-22T17:56:45.535Z,93.70
2022-11-22T17:59:11.926Z,93.70
2022-11-22T18:01:38.653Z,93.80
2022-11-22T18:04:05.028Z,93.70
2022-11-22T18:06:32.547Z,93.60
2022-11-22T18:08:59.685Z,93.60
2022-11-22T18:11:25.978Z,94.10
2022-11-22T18:13:52.475Z,93.80
2022-11-22T18:16:18.965Z,94.00
2022-11-22T18:19:00.790Z,94.40
2022-11-22T18:21:31.552Z,94.20
2022-11-22T18:23:58.661Z,94.20
2022-11-22T18:26:41.614Z,94.20
2022-11-22T18:29:41.307Z,94.20
2022-11-22T18:32:12.086Z,94.30
2022-11-22T18:34:38.631Z,94.20
2022-11-22T18:37:05.525Z,94.20
2022-11-22T18:39:35.690Z,94.20
2022-11-22T18:42:06.007Z,94.10
2022-11-22T18:44:32.352Z,94.00
2022-11-22T18:46:58.725Z,94.10
2022-11-22T18:49:25.884Z,94.10
2022-11-22T18:51:52.875Z,93.90
2022-11-22T18:54:21.350Z,94.00
2022-11-22T18:56:48.124Z,93.90
2022-11-22T18:59:14.763Z,94.10
2022-11-22T19:01:42.940Z,94.30
2022-11-22T19:04:15.954Z,94.50
2022-11-22T19:06:42.708Z,94.60
2022-11-22T19:09:09.641Z,94.20
2022-11-22T19:11:39.179Z,94.40
2022-11-22T19:14:05.858Z,94.50
2022-11-22T19:16:34.345Z,94.60
2022-11-22T19:19:01.389Z,95.00
2022-11-22T19:21:30.401Z,95.20
2022-11-22T19:23:56.757Z,95.50
2022-11-22T19:26:26.513Z,95.70
2022-11-22T19:28:57.995Z,95.80
2022-11-22T19:31:29.645Z,95.80
2022-11-22T19:33:57.263Z,96.20
2022-11-22T19:36:31.797Z,95.70
2022-11-22T19:38:59.487Z,95.70
2022-11-22T19:41:27.169Z,95.80
2022-11-22T19:43:55.927Z,95.90
2022-11-22T19:46:24.453Z,95.90
2022-11-22T19:48:52.740Z,95.90
2022-11-22T19:51:19.272Z,96.00
2022-11-22T19:53:46.033Z,96.00
2022-11-22T19:56:18.951Z,95.90
2022-11-22T19:58:52.729Z,95.80
2022-11-22T20:01:19.112Z,95.80
2022-11-22T20:03:46.291Z,95.90
2022-11-22T20:06:13.565Z,95.90
2022-11-22T20:08:39.852Z,95.90
2022-11-22T20:11:09.155Z,96.40
2022-11-22T20:13:38.164Z,96.50
2022-11-22T20:16:14.140Z,96.60
2022-11-22T20:18:45.131Z,97.10
2022-11-22T20:21:11.869Z,97.80
2022-11-22T20:23:38.689Z,97.80
2022-11-22T20:26:09.328Z,97.90
2022-11-22T20:28:37.333Z,97.80
2022-11-22T20:31:11.727Z,97.70
2022-11-22T20:33:39.781Z,97.70
2022-11-22T20:36:08.567Z,97.50
2022-11-22T20:38:37.106Z,97.60
2022-11-22T20:41:06.067Z,97.70
2022-11-22T20:43:33.500Z,97.70
2022-11-22T20:46:11.000Z,97.80
2022-11-22T20:48:38.047Z,98.00
2022-11-22T20:51:12.266Z,98.10
2022-11-22T20:53:38.593Z,98.40
2022-11-22T20:56:06.709Z,98.60
2022-11-22T20:58:34.141Z,98.80
2022-11-22T21:01:07.205Z,98.70
2022-11-22T21:03:34.895Z,98.70
2022-11-22T21:06:01.400Z,98.60
2022-11-22T21:08:28.440Z,98.60
2022-11-22T21:11:17.965Z,98.70
2022-11-22T21:13:45.971Z,98.60
2022-11-22T21:16:23.472Z,98.60
2022-11-22T21:18:55.167Z,98.50
2022-11-22T21:21:26.336Z,98.50
2022-11-22T21:23:54.986Z,98.40
2022-11-22T21:26:22.076Z,98.50
2022-11-22T21:28:49.263Z,98.50
2022-11-22T21:31:18.252Z,98.50
2022-11-22T21:33:45.758Z,98.40
2022-11-22T21:36:12.514Z,98.50
2022-11-22T21:38:39.638Z,98.40
2022-11-22T21:41:38.230Z,98.30
2022-11-22T21:44:05.724Z,98.30
2022-11-22T21:46:31.961Z,98.30
2022-11-22T21:48:58.256Z,98.30
2022-11-22T21:51:25.809Z,98.30
2022-11-22T21:53:58.517Z,98.30
2022-11-22T21:56:25.300Z,98.20
2022-11-22T21:58:53.134Z,98.20
2022-11-22T22:01:20.242Z,98.20
2022-11-22T22:03:47.285Z,98.10
2022-11-22T22:06:15.068Z,98.00
2022-11-22T22:08:41.453Z,97.90
2022-11-22T22:11:07.847Z,98.00
2022-11-22T22:13:34.405Z,97.90
2022-11-22T22:16:04.445Z,97.90
2022-11-22T22:18:37.655Z,98.00
2022-11-22T22:21:09.029Z,98.00
2022-11-22T22:23:37.051Z,98.00
2022-11-22T22:26:09.520Z,98.10
2022-11-22T22:28:36.203Z,98.20
2022-11-22T22:31:17.933Z,98.20
2022-11-22T22:33:44.961Z,98.30
2022-11-22T22:36:11.386Z,98.70
2022-11-22T22:38:38.667Z,98.70
2022-11-22T22:41:05.604Z,98.60
2022-11-22T22:43:33.354Z,98.50
2022-11-22T22:46:07.180Z,98.50
2022-11-22T22:48:34.055Z,98.30
2022-11-22T22:51:05.728Z,98.70
2022-11-22T22:53:32.551Z,98.50
2022-11-22T22:55:59.360Z,98.80
2022-11-22T22:58:25.971Z,98.80
2022-11-22T23:00:52.213Z,99.20
2022-11-22T23:03:18.586Z,99.10
2022-11-22T23:05:45.137Z,99.10
2022-11-22T23:08:14.154Z,99.10
2022-11-22T23:10:41.501Z,99.80
2022-11-22T23:13:07.724Z,99.70
2022-11-22T23:15:56.973Z,99.90
2022-11-22T23:18:24.334Z,99.90
2022-11-22T23:20:50.582Z,99.90
2022-11-22T23:23:16.874Z,99.90
2022-11-22T23:25:43.128Z,99.90
2022-11-22T23:28:10.068Z,99.90
2022-11-22T23:30:36.632Z,99.90
2022-11-22T23:33:02.888Z,99.90
2022-11-22T23:35:29.255Z,99.90
2022-11-22T23:37:55.530Z,99.90
2022-11-22T23:40:21.755Z,99.90
2022-11-22T23:42:47.941Z,99.90
2022-11-22T23:45:14.711Z,99.90
2022-11-22T23:47:41.418Z,99.90
2022-11-22T23:50:09.396Z,99.90
2022-11-22T23:52:36.124Z,99.90
2022-11-22T23:55:02.877Z,99.90
2022-11-22T23:57:29.763Z,99.80
2022-11-22T23:59:56.932Z,99.90
